createdAt,value
2022-08-26T00:01:59.419Z,4.65
2022-08-26T00:04:27.631Z,5.00
2022-08-26T00:06:56.017Z,4.85
2022-08-26T00:09:23.384Z,4.80
2022-08-26T00:11:51.962Z,4.55
2022-08-26T00:14:19.087Z,4.85
2022-08-26T00:16:48.057Z,5.40
2022-08-26T00:19:16.898Z,4.68
2022-08-26T00:21:45.130Z,4.57
2022-08-26T00:24:13.260Z,4.65
2022-08-26T00:26:41.398Z,4.82
2022-08-26T00:29:09.427Z,4.47
2022-08-26T00:31:38.015Z,4.40
2022-08-26T00:34:07.132Z,5.20
2022-08-26T00:36:36.944Z,4.78
2022-08-26T00:39:04.753Z,4.40
2022-08-26T00:41:34.321Z,4.93
2022-08-26T00:44:01.496Z,5.35
2022-08-26T00:46:32.102Z,6.00
2022-08-26T00:49:11.687Z,4.32
2022-08-26T00:51:43.598Z,4.75
2022-08-26T00:54:11.139Z,4.63
2022-08-26T00:56:43.327Z,4.28
2022-08-26T00:59:12.126Z,4.65
2022-08-26T01:01:40.564Z,4.40
2022-08-26T01:04:09.379Z,5.15
2022-08-26T01:06:36.632Z,5.05
2022-08-26T01:09:04.238Z,5.78
2022-08-26T01:11:32.073Z,4.95
2022-08-26T01:14:01.196Z,5.88
2022-08-26T01:16:30.550Z,4.63
2022-08-26T01:19:01.035Z,4.90
2022-08-26T01:22:00.556Z,4.80
2022-08-26T01:24:28.430Z,4.78
2022-08-26T01:27:01.618Z,4.53
2022-08-26T01:29:29.844Z,5.55
2022-08-26T01:31:57.918Z,4.55
2022-08-26T01:34:36.389Z,4.88
2022-08-26T01:37:15.794Z,4.93
2022-08-26T01:39:45.283Z,4.85
2022-08-26T01:42:14.638Z,4.07
2022-08-26T01:45:07.032Z,4.70
2022-08-26T01:47:37.964Z,5.05
2022-08-26T01:50:13.026Z,4.57
2022-08-26T01:52:53.445Z,4.60
2022-08-26T01:55:29.290Z,5.03
2022-08-26T01:58:01.424Z,4.47
2022-08-26T02:00:28.564Z,5.30
2022-08-26T02:03:18.267Z,4.88
2022-08-26T02:05:53.413Z,5.03
2022-08-26T02:08:36.854Z,4.95
2022-08-26T02:11:03.878Z,4.25
2022-08-26T02:13:33.033Z,4.65
2022-08-26T02:16:03.708Z,4.82
2022-08-26T02:18:35.044Z,5.18
2022-08-26T02:21:02.432Z,4.60
2022-08-26T02:23:33.659Z,4.38
2022-08-26T02:26:12.575Z,4.40
2022-08-26T02:28:56.254Z,4.45
2022-08-26T02:31:23.600Z,4.32
2022-08-26T02:33:50.379Z,4.80
2022-08-26T02:36:28.390Z,4.75
2022-08-26T02:38:55.636Z,4.50
2022-08-26T02:41:23.696Z,4.85
2022-08-26T02:43:51.444Z,4.28
2022-08-26T02:46:27.652Z,4.60
2022-08-26T02:48:54.948Z,4.80
2022-08-26T02:51:21.632Z,4.38
2022-08-26T02:53:51.338Z,4.40
2022-08-26T02:56:18.289Z,5.05
2022-08-26T02:58:46.360Z,4.90
2022-08-26T03:01:25.213Z,4.43
2022-08-26T03:03:53.322Z,4.25
2022-08-26T03:06:20.600Z,5.00
2022-08-26T03:08:47.920Z,5.70
2022-08-26T03:11:15.128Z,4.75
2022-08-26T03:13:42.647Z,4.72
2022-08-26T03:16:09.613Z,5.60
2022-08-26T03:18:36.510Z,4.70
2022-08-26T03:21:07.856Z,4.57
2022-08-26T03:23:35.200Z,4.78
2022-08-26T03:26:02.309Z,4.40
2022-08-26T03:28:29.539Z,4.95
2022-08-26T03:30:58.062Z,4.80
2022-08-26T03:33:26.500Z,4.90
2022-08-26T03:35:54.395Z,4.57
2022-08-26T03:38:25.055Z,4.22
2022-08-26T03:40:52.486Z,5.15
2022-08-26T03:43:19.651Z,4.47
2022-08-26T03:45:46.692Z,4.57
2022-08-26T03:48:13.633Z,4.70
2022-08-26T03:50:41.647Z,4.53
2022-08-26T03:53:12.787Z,5.18
2022-08-26T03:55:40.840Z,6.15
2022-08-26T03:58:07.580Z,5.00
2022-08-26T04:00:34.453Z,4.80
2022-08-26T04:03:01.663Z,4.93
2022-08-26T04:05:28.512Z,4.65
2022-08-26T04:07:55.235Z,5.22
2022-08-26T04:10:29.058Z,4.88
2022-08-26T04:12:59.024Z,4.90
2022-08-26T04:15:26.888Z,5.45
2022-08-26T04:17:53.978Z,5.35
2022-08-26T04:20:22.869Z,4.78
2022-08-26T04:22:50.535Z,5.00
2022-08-26T04:25:32.068Z,5.38
2022-08-26T04:27:58.830Z,5.00
2022-08-26T04:30:27.654Z,5.15
2022-08-26T04:32:54.707Z,5.50
2022-08-26T04:35:25.764Z,4.82
2022-08-26T04:37:53.008Z,4.50
2022-08-26T04:40:19.769Z,5.43
2022-08-26T04:42:48.587Z,6.07
2022-08-26T04:45:17.316Z,5.10
2022-08-26T04:47:44.248Z,5.07
2022-08-26T04:50:11.149Z,5.03
2022-08-26T04:52:37.822Z,5.32
2022-08-26T04:55:06.541Z,5.57
2022-08-26T04:57:35.011Z,5.72
2022-08-26T05:00:02.483Z,5.00
2022-08-26T05:02:31.498Z,5.13
2022-08-26T05:04:58.417Z,5.07
2022-08-26T05:07:26.058Z,5.28
2022-08-26T05:09:52.855Z,5.13
2022-08-26T05:12:19.604Z,6.18
2022-08-26T05:14:46.405Z,5.30
2022-08-26T05:17:14.958Z,5.18
2022-08-26T05:19:42.970Z,5.65
2022-08-26T05:22:09.840Z,4.50
2022-08-26T05:24:40.390Z,4.60
2022-08-26T05:27:11.752Z,5.15
2022-08-26T05:29:41.208Z,4.72
2022-08-26T05:32:08.274Z,5.93
2022-08-26T05:37:06.200Z,5.47
2022-08-26T05:39:33.772Z,5.82
2022-08-26T05:42:01.207Z,5.05
2022-08-26T05:44:28.963Z,5.57
2022-08-26T05:47:03.592Z,5.68
2022-08-26T05:49:30.564Z,5.22
2022-08-26T05:51:57.266Z,5.40
2022-08-26T05:54:24.883Z,4.85
2022-08-26T05:56:52.110Z,5.43
2022-08-26T05:59:24.100Z,5.15
2022-08-26T06:01:52.110Z,5.38
2022-08-26T06:04:18.867Z,5.75
2022-08-26T06:06:46.949Z,5.80
2022-08-26T06:09:14.042Z,5.03
2022-08-26T06:11:44.292Z,4.93
2022-08-26T06:14:11.040Z,4.80
2022-08-26T06:16:41.277Z,4.40
2022-08-26T06:19:10.707Z,4.80
2022-08-26T06:21:40.385Z,5.00
2022-08-26T06:24:29.384Z,4.85
2022-08-26T06:27:01.642Z,4.38
2022-08-26T06:29:30.422Z,5.10
2022-08-26T06:31:58.632Z,5.03
2022-08-26T06:34:30.428Z,4.45
2022-08-26T06:37:02.704Z,4.32
2022-08-26T06:39:31.309Z,4.50
2022-08-26T06:41:59.381Z,3.67
2022-08-26T06:44:27.204Z,4.15
2022-08-26T06:46:54.088Z,4.55
2022-08-26T06:49:26.919Z,4.55
2022-08-26T06:51:55.248Z,5.00
2022-08-26T06:54:22.077Z,4.93
2022-08-26T06:56:49.541Z,5.25
2022-08-26T06:59:16.316Z,4.72
2022-08-26T07:01:44.939Z,4.85
2022-08-26T07:04:15.505Z,4.82
2022-08-26T07:06:48.949Z,4.63
2022-08-26T07:09:16.790Z,4.13
2022-08-26T07:11:44.543Z,4.70
2022-08-26T07:14:12.152Z,4.63
2022-08-26T07:16:41.209Z,4.22
2022-08-26T07:19:11.223Z,4.30
2022-08-26T07:21:40.392Z,4.40
2022-08-26T07:24:07.843Z,4.73
2022-08-26T07:26:34.639Z,4.65
2022-08-26T07:29:02.029Z,4.63
2022-08-26T07:31:36.004Z,4.50
2022-08-26T07:34:07.682Z,4.07
2022-08-26T07:36:34.975Z,4.38
2022-08-26T07:39:01.684Z,4.47
2022-08-26T07:43:56.798Z,4.45
2022-08-26T07:46:26.932Z,5.18
2022-08-26T07:48:54.589Z,3.92
2022-08-26T07:51:22.741Z,4.50
2022-08-26T07:53:52.379Z,4.93
2022-08-26T07:56:21.176Z,4.00
2022-08-26T07:58:51.467Z,4.43
2022-08-26T08:01:23.802Z,5.05
2022-08-26T08:03:51.827Z,4.00
2022-08-26T08:06:20.631Z,4.10
2022-08-26T08:08:48.078Z,4.70
2022-08-26T08:11:21.068Z,3.80
2022-08-26T08:13:48.664Z,4.90
2022-08-26T08:16:15.765Z,4.38
2022-08-26T08:18:42.507Z,4.50
2022-08-26T08:21:21.843Z,4.45
2022-08-26T08:23:52.734Z,3.22
2022-08-26T08:26:20.172Z,3.95
2022-08-26T08:28:47.930Z,3.60
2022-08-26T08:31:45.053Z,3.70
2022-08-26T08:34:09.690Z,3.85
2022-08-26T08:36:36.788Z,3.65
2022-08-26T08:39:04.128Z,3.10
2022-08-26T08:44:21.272Z,3.20
2022-08-26T08:46:54.510Z,2.85
2022-08-26T08:49:22.839Z,3.95
2022-08-26T08:52:04.149Z,3.28
2022-08-26T08:54:32.392Z,2.95
2022-08-26T08:57:17.056Z,2.50
2022-08-26T09:00:02.185Z,2.70
2022-08-26T09:03:03.757Z,3.08
2022-08-26T09:05:40.145Z,3.10
2022-08-26T09:08:12.797Z,3.10
2022-08-26T09:10:59.166Z,2.60
2022-08-26T09:13:27.378Z,2.70
2022-08-26T09:16:00.101Z,2.72
2022-08-26T09:18:47.699Z,3.10
2022-08-26T09:21:17.914Z,3.13
2022-08-26T09:23:49.498Z,3.63
2022-08-26T09:26:30.966Z,2.25
2022-08-26T09:29:10.438Z,3.13
2022-08-26T09:31:42.200Z,2.35
2022-08-26T09:34:27.300Z,2.45
2022-08-26T09:36:56.916Z,2.90
2022-08-26T09:42:02.397Z,2.63
2022-08-26T09:44:30.575Z,2.60
2022-08-26T09:47:01.293Z,2.83
2022-08-26T09:49:41.417Z,2.83
2022-08-26T09:52:14.427Z,3.30
2022-08-26T09:54:43.929Z,2.97
2022-08-26T09:57:18.538Z,2.95
2022-08-26T09:59:45.341Z,2.90
2022-08-26T10:02:27.038Z,2.47
2022-08-26T10:04:56.908Z,3.25
2022-08-26T10:07:43.522Z,3.03
2022-08-26T10:10:24.979Z,3.55
2022-08-26T10:13:03.170Z,3.17
2022-08-26T10:15:41.279Z,3.50
2022-08-26T10:18:18.012Z,2.70
2022-08-26T10:23:45.156Z,3.92
2022-08-26T10:26:30.438Z,3.17
2022-08-26T10:29:22.612Z,3.15
2022-08-26T10:32:02.518Z,2.85
2022-08-26T10:34:32.339Z,3.33
2022-08-26T10:37:14.990Z,2.95
2022-08-26T10:40:07.391Z,2.92
2022-08-26T10:42:52.086Z,3.28
2022-08-26T10:45:25.170Z,3.08
2022-08-26T10:48:05.433Z,3.00
2022-08-26T10:50:38.815Z,2.80
2022-08-26T10:53:36.630Z,2.90
2022-08-26T10:56:34.767Z,2.93
2022-08-26T10:59:39.717Z,3.00
2022-08-26T11:02:11.823Z,2.53
2022-08-26T11:04:55.851Z,3.28
2022-08-26T11:07:40.454Z,3.10
2022-08-26T11:10:09.466Z,2.67
2022-08-26T11:12:36.285Z,3.38
2022-08-26T11:15:13.809Z,2.80
2022-08-26T11:17:44.724Z,3.40
2022-08-26T11:20:31.993Z,3.30
2022-08-26T11:23:28.149Z,2.80
2022-08-26T11:26:09.982Z,3.00
2022-08-26T11:28:39.198Z,3.15
2022-08-26T11:31:11.447Z,3.30
2022-08-26T11:33:44.439Z,2.80
2022-08-26T11:36:31.935Z,3.20
2022-08-26T11:39:05.012Z,3.47
2022-08-26T11:41:33.716Z,3.05
2022-08-26T11:44:02.309Z,3.00
2022-08-26T11:46:35.707Z,2.70
2022-08-26T11:49:06.450Z,2.97
2022-08-26T11:51:40.038Z,3.42
2022-08-26T11:54:14.089Z,3.97
2022-08-26T11:56:43.822Z,3.10
2022-08-26T11:59:12.071Z,3.15
2022-08-26T12:01:41.122Z,3.10
2022-08-26T12:04:10.688Z,2.78
2022-08-26T12:06:45.120Z,3.05
2022-08-26T12:09:15.619Z,2.85
2022-08-26T12:11:42.924Z,3.35
2022-08-26T12:14:21.348Z,2.92
2022-08-26T12:16:48.810Z,3.00
2022-08-26T12:19:26.256Z,2.88
2022-08-26T12:22:28.452Z,2.92
2022-08-26T12:25:00.586Z,3.00
2022-08-26T12:27:30.133Z,3.38
2022-08-26T12:32:29.369Z,3.80
2022-08-26T12:34:56.437Z,3.55
2022-08-26T12:37:24.558Z,3.90
2022-08-26T12:39:51.359Z,2.80
2022-08-26T12:42:39.793Z,3.55
2022-08-26T12:45:07.915Z,3.33
2022-08-26T12:47:42.692Z,3.70
2022-08-26T12:50:17.158Z,3.17
2022-08-26T12:52:57.874Z,2.70
2022-08-26T12:55:27.979Z,3.38
2022-08-26T12:58:16.371Z,3.15
2022-08-26T13:01:10.717Z,3.47
2022-08-26T13:03:43.735Z,3.30
2022-08-26T13:06:22.437Z,4.00
2022-08-26T13:08:52.866Z,3.70
2022-08-26T13:11:26.891Z,3.38
2022-08-26T13:13:58.597Z,2.97
2022-08-26T13:16:26.433Z,3.35
2022-08-26T13:18:59.799Z,3.00
2022-08-26T13:21:35.534Z,3.30
2022-08-26T13:24:13.847Z,2.85
2022-08-26T13:26:42.801Z,3.30
2022-08-26T13:29:10.575Z,3.83
2022-08-26T13:31:40.840Z,2.70
2022-08-26T13:34:10.766Z,3.20
2022-08-26T13:36:37.589Z,3.00
2022-08-26T13:39:07.249Z,3.75
2022-08-26T13:41:34.318Z,3.13
2022-08-26T13:44:01.680Z,2.78
2022-08-26T13:46:29.373Z,2.72
2022-08-26T13:48:57.338Z,3.13
2022-08-26T13:51:24.980Z,3.25
2022-08-26T13:53:52.646Z,3.38
2022-08-26T13:56:20.136Z,3.28
2022-08-26T13:58:47.767Z,3.03
2022-08-26T14:03:44.604Z,3.25
2022-08-26T14:06:11.644Z,3.60
2022-08-26T14:08:39.493Z,3.45
2022-08-26T14:11:06.933Z,3.60
2022-08-26T14:13:34.333Z,3.33
2022-08-26T14:16:04.791Z,3.53
2022-08-26T14:18:37.270Z,3.05
2022-08-26T14:21:11.717Z,3.78
2022-08-26T14:23:38.464Z,3.75
2022-08-26T14:26:08.271Z,3.30
2022-08-26T14:28:35.673Z,3.58
2022-08-26T14:31:03.462Z,3.80
2022-08-26T14:33:33.489Z,3.80
2022-08-26T14:36:19.369Z,3.90
2022-08-26T14:38:46.693Z,3.83
2022-08-26T14:41:16.696Z,3.78
2022-08-26T14:43:59.940Z,3.88
2022-08-26T14:46:30.173Z,3.40
2022-08-26T14:49:01.815Z,4.15
2022-08-26T14:51:29.366Z,3.78
2022-08-26T14:54:14.311Z,3.97
2022-08-26T14:56:55.278Z,3.30
2022-08-26T14:59:28.257Z,4.35
2022-08-26T15:01:56.211Z,3.40
2022-08-26T15:04:24.218Z,3.80
2022-08-26T15:06:55.223Z,3.75
2022-08-26T15:09:22.973Z,3.38
2022-08-26T15:11:50.534Z,3.75
2022-08-26T15:14:19.650Z,3.17
2022-08-26T15:16:48.316Z,3.92
2022-08-26T15:19:16.047Z,3.97
2022-08-26T15:21:45.281Z,3.80
2022-08-26T15:24:12.764Z,3.72
2022-08-26T15:26:39.906Z,3.65
2022-08-26T15:29:07.252Z,3.80
2022-08-26T15:31:34.597Z,3.72
2022-08-26T15:34:06.841Z,4.85
2022-08-26T15:36:37.063Z,4.47
2022-08-26T15:39:06.729Z,4.57
2022-08-26T15:41:34.746Z,4.50
2022-08-26T15:44:03.409Z,3.55
2022-08-26T15:46:31.720Z,4.13
2022-08-26T15:48:58.599Z,4.88
2022-08-26T15:51:31.876Z,4.75
2022-08-26T15:53:59.377Z,4.75
2022-08-26T15:56:28.983Z,4.70
2022-08-26T15:58:56.422Z,4.38
2022-08-26T16:01:27.420Z,4.72
2022-08-26T16:03:55.680Z,4.82
2022-08-26T16:06:27.541Z,4.63
2022-08-26T16:08:56.185Z,5.35
2022-08-26T16:11:23.459Z,5.95
2022-08-26T16:13:50.667Z,5.80
2022-08-26T16:16:20.666Z,4.55
2022-08-26T16:18:47.843Z,4.88
2022-08-26T16:21:20.144Z,5.22
2022-08-26T16:23:47.842Z,5.20
2022-08-26T16:26:18.009Z,4.72
2022-08-26T16:28:45.417Z,4.82
2022-08-26T16:31:13.886Z,4.30
2022-08-26T16:33:40.728Z,5.20
2022-08-26T16:36:09.064Z,4.65
2022-08-26T16:38:37.690Z,4.75
2022-08-26T16:41:05.528Z,4.72
2022-08-26T16:43:32.544Z,5.22
2022-08-26T16:45:59.732Z,5.75
2022-08-26T16:48:28.361Z,5.05
2022-08-26T16:50:55.701Z,5.25
2022-08-26T16:53:22.821Z,5.57
2022-08-26T16:55:51.270Z,4.95
2022-08-26T16:58:21.948Z,5.05
2022-08-26T17:00:49.524Z,5.30
2022-08-26T17:03:17.932Z,4.97
2022-08-26T17:05:44.716Z,6.30
2022-08-26T17:08:12.051Z,6.03
2022-08-26T17:10:39.740Z,5.63
2022-08-26T17:13:06.725Z,6.40
2022-08-26T17:15:33.542Z,7.25
2022-08-26T17:18:00.343Z,7.10
2022-08-26T17:20:27.296Z,7.13
2022-08-26T17:22:55.200Z,7.88
2022-08-26T17:25:25.893Z,9.25
2022-08-26T17:27:53.587Z,9.43
2022-08-26T17:30:21.577Z,10.05
2022-08-26T17:32:48.359Z,10.40
2022-08-26T17:35:15.417Z,10.20
2022-08-26T17:37:43.622Z,9.70
2022-08-26T17:40:15.406Z,9.45
2022-08-26T17:42:44.155Z,9.10
2022-08-26T17:45:11.921Z,9.63
2022-08-26T17:47:39.557Z,8.98
2022-08-26T17:50:09.518Z,9.13
2022-08-26T17:52:37.428Z,9.48
2022-08-26T17:55:06.443Z,9.45
2022-08-26T17:57:39.737Z,9.17
2022-08-26T18:00:13.205Z,9.15
2022-08-26T18:02:40.413Z,10.48
2022-08-26T18:05:09.024Z,10.20
2022-08-26T18:07:43.792Z,13.02
2022-08-26T18:10:14.072Z,14.93
2022-08-26T18:12:41.925Z,16.30
2022-08-26T18:15:11.075Z,17.33
2022-08-26T18:17:39.911Z,17.00
2022-08-26T18:20:09.343Z,16.52
2022-08-26T18:22:36.054Z,17.00
2022-08-26T18:25:04.844Z,15.32
2022-08-26T18:27:31.709Z,15.18
2022-08-26T18:29:58.836Z,16.10
2022-08-26T18:32:25.631Z,15.52
2022-08-26T18:34:52.324Z,15.70
2022-08-26T18:37:19.118Z,15.63
2022-08-26T18:39:45.837Z,17.58
2022-08-26T18:42:12.976Z,13.90
2022-08-26T18:44:39.628Z,15.38
2022-08-26T18:47:06.785Z,15.57
2022-08-26T18:49:33.554Z,15.07
2022-08-26T18:52:02.871Z,14.60
2022-08-26T18:54:30.012Z,14.63
2022-08-26T18:56:56.743Z,12.80
2022-08-26T18:59:29.574Z,13.40
2022-08-26T19:01:57.789Z,14.02
2022-08-26T19:04:24.734Z,14.25
2022-08-26T19:06:51.967Z,13.32
2022-08-26T19:09:19.249Z,12.68
2022-08-26T19:11:49.583Z,12.90
2022-08-26T19:14:17.367Z,12.97
2022-08-26T19:16:47.355Z,12.63
2022-08-26T19:21:41.980Z,11.55
2022-08-26T19:24:15.603Z,11.85
2022-08-26T19:26:44.673Z,11.25
2022-08-26T19:29:12.357Z,11.60
2022-08-26T19:31:39.404Z,11.00
2022-08-26T19:34:07.028Z,11.63
2022-08-26T19:36:34.351Z,10.48
2022-08-26T19:39:04.900Z,9.88
2022-08-26T19:41:37.939Z,9.57
2022-08-26T19:44:11.532Z,10.48
2022-08-26T19:49:10.330Z,9.30
2022-08-26T19:51:37.160Z,10.27
2022-08-26T19:54:04.432Z,9.65
2022-08-26T19:56:31.758Z,10.43
2022-08-26T19:58:58.857Z,10.48
2022-08-26T20:01:25.991Z,10.05
2022-08-26T20:03:53.000Z,10.02
2022-08-26T20:06:20.428Z,10.38
2022-08-26T20:08:47.512Z,10.98
2022-08-26T20:11:18.739Z,9.40
2022-08-26T20:13:47.494Z,9.52
2022-08-26T20:16:15.150Z,10.30
2022-08-26T20:19:02.670Z,10.18
2022-08-26T20:21:33.199Z,9.68
2022-08-26T20:24:05.367Z,9.85
2022-08-26T20:26:35.327Z,9.52
2022-08-26T20:29:02.607Z,9.23
2022-08-26T20:31:29.767Z,10.50
2022-08-26T20:33:56.627Z,9.85
2022-08-26T20:36:26.866Z,10.05
2022-08-26T20:38:55.336Z,10.15
2022-08-26T20:41:25.383Z,9.18
2022-08-26T20:46:24.096Z,9.13
2022-08-26T20:48:52.567Z,10.50
2022-08-26T20:51:19.915Z,9.35
2022-08-26T20:53:46.995Z,9.60
2022-08-26T20:56:16.110Z,10.48
2022-08-26T20:58:43.274Z,9.67
2022-08-26T21:01:21.222Z,10.50
2022-08-26T21:03:50.331Z,9.35
2022-08-26T21:06:17.191Z,10.10
2022-08-26T21:08:45.201Z,9.77
2022-08-26T21:11:12.095Z,8.82
2022-08-26T21:14:03.384Z,9.30
2022-08-26T21:16:26.265Z,8.38
2022-08-26T21:18:53.360Z,9.20
2022-08-26T21:21:25.150Z,9.20
2022-08-26T21:23:52.135Z,8.68
2022-08-26T21:26:19.220Z,9.50
2022-08-26T21:28:46.435Z,8.60
2022-08-26T21:31:16.870Z,8.50
2022-08-26T21:33:44.079Z,7.95
2022-08-26T21:36:12.129Z,8.32
2022-08-26T21:38:40.143Z,8.70
2022-08-26T21:41:18.647Z,8.85
2022-08-26T21:43:48.053Z,8.68
2022-08-26T21:46:17.992Z,8.45
2022-08-26T21:48:50.513Z,8.60
2022-08-26T21:51:20.091Z,8.98
2022-08-26T21:53:46.877Z,8.63
2022-08-26T21:56:16.195Z,8.50
2022-08-26T21:58:43.198Z,9.55
2022-08-26T22:01:13.129Z,8.52
2022-08-26T22:03:46.950Z,8.80
2022-08-26T22:06:18.723Z,9.18
2022-08-26T22:08:45.582Z,8.88
2022-08-26T22:11:12.823Z,8.82
2022-08-26T22:13:41.471Z,8.98
2022-08-26T22:16:10.854Z,9.80
2022-08-26T22:18:38.659Z,9.63
2022-08-26T22:21:09.515Z,9.85
2022-08-26T22:23:38.275Z,9.88
2022-08-26T22:26:10.157Z,9.45
2022-08-26T22:28:37.169Z,9.73
2022-08-26T22:31:04.204Z,9.20
2022-08-26T22:33:30.973Z,9.63
2022-08-26T22:35:57.751Z,9.15
2022-08-26T22:38:24.815Z,9.05
2022-08-26T22:40:56.501Z,8.38
2022-08-26T22:43:25.033Z,8.57
2022-08-26T22:45:53.113Z,8.82
2022-08-26T22:48:22.812Z,8.73
2022-08-26T22:50:51.091Z,8.05
2022-08-26T22:53:18.634Z,8.55
2022-08-26T22:55:46.362Z,8.25
2022-08-26T22:58:16.248Z,8.88
2022-08-26T23:00:44.521Z,8.18
2022-08-26T23:03:11.660Z,7.80
2022-08-26T23:05:40.365Z,8.10
2022-08-26T23:08:08.685Z,6.97
2022-08-26T23:10:37.022Z,7.82
2022-08-26T23:13:07.650Z,6.90
2022-08-26T23:15:35.376Z,7.95
2022-08-26T23:18:02.568Z,7.03
2022-08-26T23:20:29.660Z,8.55
2022-08-26T23:22:56.517Z,7.72
2022-08-26T23:25:24.454Z,7.60
2022-08-26T23:27:52.206Z,7.13
2022-08-26T23:30:22.647Z,7.80
2022-08-26T23:32:49.921Z,7.97
2022-08-26T23:35:21.322Z,8.18
2022-08-26T23:37:51.604Z,7.10
2022-08-26T23:40:25.461Z,8.15
2022-08-26T23:42:56.836Z,7.53
2022-08-26T23:45:25.079Z,7.13
2022-08-26T23:47:53.268Z,7.57
2022-08-26T23:50:24.592Z,7.57
2022-08-26T23:53:07.163Z,7.38
2022-08-26T23:55:36.121Z,8.20
2022-08-26T23:58:03.484Z,7.50
